Time;durP1;ratioP1;P1;durP2;ratioP2;P2;SDS_P1;SDS_P2;PMS_P1;PMS_P2;Temp;Humidity;BMP_temperature;BMP_pressure;BME280_temperature;BME280_humidity;BME280_pressure;Samples;Min_cycle;Max_cycle;Signal;HPM_P1;HPM_P2
2023/10/12 00:04:36;;;;;;;14.00;4.15;;;;;;;19.15;64.59;100258.72;5095252;27;20127;-79
2023/10/12 00:07:10;;;;;;;9.50;4.43;;;;;;;19.14;64.68;100259.69;5096269;28;20787;-79
2023/10/12 00:09:37;;;;;;;8.65;3.60;;;;;;;19.11;64.34;100246.53;5086508;28;20040;-79
2023/10/12 00:12:08;;;;;;;8.23;4.00;;;;;;;19.09;64.52;100243.97;5080049;28;20042;-79
2023/10/12 00:14:36;;;;;;;9.05;3.72;;;;;;;19.09;64.81;100251.94;5069330;28;20032;-79
2023/10/12 00:17:05;;;;;;;10.20;4.15;;;;;;;19.06;64.72;100240.63;5081553;28;20058;-78
2023/10/12 00:19:31;;;;;;;9.85;4.45;;;;;;;19.01;65.17;100247.03;5077727;28;20114;-79
2023/10/12 00:22:00;;;;;;;8.20;4.00;;;;;;;19.02;64.95;100242.59;5075653;28;20036;-77
2023/10/12 00:24:27;;;;;;;8.05;4.05;;;;;;;19.00;65.10;100239.16;5078774;28;20055;-78
2023/10/12 00:26:56;;;;;;;8.55;4.07;;;;;;;19.03;65.32;100238.97;5076563;28;20040;-78
2023/10/12 00:29:22;;;;;;;9.63;4.32;;;;;;;18.96;65.78;100235.78;5094596;27;20046;-78
2023/10/12 00:31:50;;;;;;;10.85;5.10;;;;;;;18.96;66.13;100233.13;5054664;28;20046;-78
2023/10/12 00:34:23;;;;;;;8.27;5.05;;;;;;;18.94;66.44;100242.97;5068744;28;20117;-77
2023/10/12 00:36:52;;;;;;;12.48;4.72;;;;;;;18.94;66.34;100252.72;5086718;27;20052;-78
2023/10/12 00:39:27;;;;;;;9.20;4.82;;;;;;;18.89;66.70;100258.25;5071502;28;20047;-79
2023/10/12 00:41:55;;;;;;;9.40;4.95;;;;;;;18.87;67.01;100257.44;5089641;28;20122;-77
2023/10/12 00:44:29;;;;;;;13.82;5.35;;;;;;;18.84;67.57;100247.00;5078762;28;20047;-77
2023/10/12 00:47:07;;;;;;;8.70;4.35;;;;;;;18.78;68.18;100269.34;5061862;28;20364;-77
2023/10/12 00:49:40;;;;;;;10.98;4.95;;;;;;;18.73;69.42;100271.38;5075057;28;20070;-79
2023/10/12 00:52:14;;;;;;;6.95;4.38;;;;;;;18.66;70.44;100262.00;5071469;28;20121;-78
2023/10/12 00:54:43;;;;;;;;;;;;;;;18.56;71.81;100256.28;5074570;28;20093;-80
2023/10/12 00:57:10;;;;;;;9.15;5.05;;;;;;;18.52;71.63;100255.59;5068100;28;19934;-77
2023/10/12 00:59:43;;;;;;;6.82;5.20;;;;;;;18.46;71.87;100255.88;5067334;28;20040;-79
2023/10/12 01:02:15;;;;;;;12.77;4.55;;;;;;;18.38;73.51;100255.38;5091835;28;20372;-79
2023/10/12 01:04:43;;;;;;;8.32;5.28;;;;;;;18.32;73.46;100247.75;5073974;28;20084;-81
2023/10/12 01:07:11;;;;;;;11.27;5.45;;;;;;;18.26;74.39;100253.31;5076250;28;20051;-80
2023/10/12 01:09:43;;;;;;;5.60;4.30;;;;;;;18.21;74.56;100260.63;5078582;28;20055;-80
2023/10/12 01:12:14;;;;;;;11.40;5.03;;;;;;;18.13;76.21;100261.00;5047337;28;20051;-78
2023/10/12 01:14:48;;;;;;;7.47;4.82;;;;;;;18.08;76.32;100270.94;5086995;28;20120;-80
2023/10/12 01:17:24;;;;;;;9.50;5.28;;;;;;;18.01;76.61;100273.88;5077537;28;20148;-76
2023/10/12 01:19:51;;;;;;;8.55;4.82;;;;;;;17.93;78.24;100283.97;5076182;28;20048;-79
2023/10/12 01:22:25;;;;;;;7.70;4.72;;;;;;;17.88;78.71;100290.38;5074297;28;20039;-79
2023/10/12 01:25:10;;;;;;;8.30;5.13;;;;;;;17.81;79.62;100289.78;5072700;28;20494;-78
2023/10/12 01:27:41;;;;;;;10.05;5.40;;;;;;;17.74;81.16;100289.19;5072688;28;20047;-80
2023/10/12 01:30:17;;;;;;;10.73;4.95;;;;;;;17.67;81.44;100290.41;5052781;28;20130;-76
2023/10/12 01:32:44;;;;;;;8.82;5.70;;;;;;;17.58;83.45;100277.56;5076836;28;20036;-81
2023/10/12 01:35:12;;;;;;;9.45;5.50;;;;;;;17.50;84.94;100283.19;5078966;28;20585;-77
2023/10/12 01:37:47;;;;;;;11.38;5.50;;;;;;;17.40;87.21;100280.09;5068897;28;20131;-80
2023/10/12 01:40:15;;;;;;;12.07;6.55;;;;;;;17.38;87.35;100286.38;5071113;28;20070;-76
2023/10/12 01:42:49;;;;;;;11.10;6.32;;;;;;;17.32;88.24;100284.84;5071774;28;20499;-77
2023/10/12 01:45:33;;;;;;;11.55;5.90;;;;;;;17.17;90.85;100299.63;5073460;28;20155;-78
2023/10/12 01:48:07;;;;;;;13.30;7.28;;;;;;;17.02;93.07;100291.38;5076688;28;20036;-78
2023/10/12 01:50:38;;;;;;;13.95;6.28;;;;;;;16.82;95.83;100294.81;5072493;28;20062;-77
2023/10/12 01:53:26;;;;;;;10.30;6.38;;;;;;;16.71;96.90;100294.38;5073338;28;20059;-79
2023/10/12 01:55:54;;;;;;;14.13;7.13;;;;;;;16.56;100.00;100303.78;5087267;27;20055;-77
2023/10/12 01:58:27;;;;;;;14.50;8.55;;;;;;;16.46;100.00;100305.06;5093087;27;20040;-80
2023/10/12 02:00:55;;;;;;;9.43;7.05;;;;;;;16.38;100.00;100313.28;5065326;28;20056;-77
2023/10/12 02:03:31;;;;;;;13.25;6.25;;;;;;;16.32;100.00;100311.75;5073204;28;20042;-77
2023/10/12 02:06:04;;;;;;;12.65;6.45;;;;;;;16.29;100.00;100316.28;5094844;27;20051;-79
2023/10/12 02:08:39;;;;;;;14.90;8.20;;;;;;;16.25;100.00;100320.81;5081219;28;20104;-78
2023/10/12 02:11:11;;;;;;;16.63;8.52;;;;;;;16.23;100.00;100333.25;5081250;27;20059;-78
2023/10/12 02:13:39;;;;;;;13.35;7.10;;;;;;;16.21;100.00;100322.72;5074848;28;20807;-80
2023/10/12 02:16:07;;;;;;;16.48;7.20;;;;;;;16.15;100.00;100319.44;5073625;28;20044;-78
2023/10/12 02:18:35;;;;;;;10.65;7.13;;;;;;;16.02;100.00;100321.66;5077820;27;21326;-79
2023/10/12 02:21:11;;;;;;;10.73;7.03;;;;;;;16.04;100.00;100335.69;5077922;28;20866;-77
2023/10/12 02:23:54;;;;;;;14.95;7.93;;;;;;;15.99;100.00;100335.00;5074914;28;20097;-80
2023/10/12 02:26:35;;;;;;;12.18;6.72;;;;;;;15.90;100.00;100337.97;5078218;28;20047;-77
2023/10/12 02:29:18;;;;;;;16.00;8.02;;;;;;;15.86;100.00;100330.16;5082708;27;20052;-76
2023/10/12 02:31:58;;;;;;;9.13;6.82;;;;;;;15.90;100.00;100337.97;5103073;28;20125;-80
2023/10/12 02:34:29;;;;;;;13.10;7.03;;;;;;;15.83;100.00;100340.81;5108397;27;20032;-76
2023/10/12 02:37:16;;;;;;;12.20;7.88;;;;;;;15.80;100.00;100345.31;5084032;28;20051;-78
2023/10/12 02:39:43;;;;;;;10.90;7.60;;;;;;;15.78;100.00;100339.25;5095535;28;20077;-76
2023/10/12 02:42:17;;;;;;;12.10;6.88;;;;;;;15.77;100.00;100342.78;5079099;28;20611;-82
2023/10/12 02:44:50;;;;;;;;;;;;;;;15.79;100.00;100341.81;5066997;28;20048;-77
2023/10/12 02:47:22;;;;;;;13.10;6.60;;;;;;;15.75;100.00;100345.50;5095653;28;20284;-76
2023/10/12 02:50:00;;;;;;;10.45;7.22;;;;;;;15.70;100.00;100347.44;5098413;27;20136;-78
2023/10/12 02:52:32;;;;;;;10.05;7.25;;;;;;;15.66;100.00;100353.75;5086510;28;20040;-78
2023/10/12 02:55:07;;;;;;;13.05;7.72;;;;;;;15.63;100.00;100365.25;5090492;27;20043;-78
2023/10/12 02:57:34;;;;;;;13.68;8.35;;;;;;;15.55;100.00;100372.56;5082132;28;20040;-78
2023/10/12 03:00:08;;;;;;;11.48;7.47;;;;;;;15.52;100.00;100367.41;5071958;28;20135;-78
2023/10/12 03:02:35;;;;;;;10.57;7.82;;;;;;;15.51;100.00;100376.22;5072484;28;20032;-79
2023/10/12 03:05:07;;;;;;;9.73;6.90;;;;;;;15.39;100.00;100386.25;5076737;28;20040;-77
2023/10/12 03:07:39;;;;;;;9.10;7.10;;;;;;;15.27;100.00;100386.69;5076110;28;20039;-78
2023/10/12 03:10:15;;;;;;;9.77;7.03;;;;;;;15.13;100.00;100394.19;5078612;28;20050;-79
2023/10/12 03:12:43;;;;;;;20.90;8.02;;;;;;;15.01;100.00;100395.44;5093549;27;20067;-79
2023/10/12 03:15:13;;;;;;;13.93;8.45;;;;;;;14.99;100.00;100403.41;5077488;28;20043;-79
2023/10/12 03:17:45;;;;;;;11.52;7.32;;;;;;;14.88;100.00;100405.50;5069918;28;20121;-78
2023/10/12 03:20:21;;;;;;;11.52;8.07;;;;;;;14.85;100.00;100411.72;5077703;27;20039;-80
2023/10/12 03:22:52;;;;;;;13.02;8.35;;;;;;;14.80;100.00;100413.63;5086704;27;20041;-79
2023/10/12 03:25:28;;;;;;;17.05;8.48;;;;;;;14.80;100.00;100428.59;5061983;28;20047;-79
2023/10/12 03:27:55;;;;;;;13.15;8.82;;;;;;;14.74;100.00;100426.97;5078657;27;20075;-83
2023/10/12 03:30:34;;;;;;;13.07;8.25;;;;;;;14.60;100.00;100432.66;5081080;28;20039;-76
2023/10/12 03:33:09;;;;;;;14.55;8.43;;;;;;;14.53;100.00;100429.31;5069154;27;20051;-79
2023/10/12 03:35:52;;;;;;;13.30;8.65;;;;;;;14.54;100.00;100435.44;5076264;28;20047;-79
2023/10/12 03:38:19;;;;;;;15.20;7.57;;;;;;;14.63;100.00;100434.31;5082399;28;20055;-78
2023/10/12 03:41:17;;;;;;;11.50;7.38;;;;;;;14.64;100.00;100436.06;5073317;28;20052;-80
2023/10/12 03:43:39;;;;;;;14.10;7.45;;;;;;;14.68;100.00;100432.47;5083385;28;20040;-79
2023/10/12 03:46:17;;;;;;;14.77;8.93;;;;;;;14.69;100.00;100445.56;5075462;28;20127;-78
2023/10/12 03:49:04;;;;;;;13.93;9.02;;;;;;;14.65;100.00;100443.94;5064927;28;20131;-79
2023/10/12 03:51:38;;;;;;;11.48;8.00;;;;;;;14.60;100.00;100448.44;5088270;27;20048;-78
2023/10/12 03:54:18;;;;;;;10.82;7.72;;;;;;;14.63;100.00;100450.13;5081627;27;20048;-79
2023/10/12 03:56:48;;;;;;;10.50;7.93;;;;;;;14.58;100.00;100460.78;5077815;28;20036;-76
2023/10/12 03:59:19;;;;;;;14.07;9.38;;;;;;;14.57;100.00;100459.06;5080551;28;20126;-76
2023/10/12 04:01:49;;;;;;;15.18;10.52;;;;;;;14.48;100.00;100457.53;5086060;28;20054;-80
2023/10/12 04:04:21;;;;;;;12.80;9.43;;;;;;;14.44;100.00;100465.59;5090925;28;20040;-76
2023/10/12 04:07:16;;;;;;;16.17;10.15;;;;;;;14.36;100.00;100457.91;5074157;28;20279;-81
2023/10/12 04:09:54;;;;;;;17.88;9.52;;;;;;;14.36;100.00;100463.16;5079710;28;20179;-80
2023/10/12 04:12:35;;;;;;;15.25;9.45;;;;;;;14.38;100.00;100464.00;5053979;28;20074;-79
2023/10/12 04:15:06;;;;;;;19.02;10.93;;;;;;;14.35;100.00;100461.44;5053936;28;20063;-79
2023/10/12 04:17:47;;;;;;;17.33;10.32;;;;;;;14.36;100.00;100464.03;5063251;28;20036;-79
2023/10/12 04:20:21;;;;;;;18.73;10.38;;;;;;;14.33;100.00;100464.13;5035684;28;20051;-80
2023/10/12 04:25:45;;;;;;;16.40;10.73;;;;;;;15.13;100.00;100504.91;5025028;28;20041;-78
2023/10/12 04:28:18;;;;;;;17.25;11.85;;;;;;;14.63;100.00;100484.38;5034481;28;20081;-81
2023/10/12 04:33:44;;;;;;;16.70;10.88;;;;;;;14.47;100.00;100465.50;5035882;28;20072;-79
2023/10/12 04:36:13;;;;;;;17.08;11.43;;;;;;;14.52;100.00;100458.31;5038726;28;21243;-80
2023/10/12 04:41:38;;;;;;;19.15;11.65;;;;;;;14.34;100.00;100459.69;5036921;28;20043;-80
2023/10/12 04:44:25;;;;;;;21.17;12.23;;;;;;;14.32;100.00;100448.38;5040571;28;20045;-80
2023/10/12 04:47:04;;;;;;;16.25;11.63;;;;;;;14.36;100.00;100427.16;5049514;28;20726;-80
2023/10/12 04:52:39;;;;;;;20.23;12.55;;;;;;;14.40;100.00;100425.31;5002005;28;20106;-78
2023/10/12 04:55:22;;;;;;;20.33;12.60;;;;;;;14.53;100.00;100425.81;5045762;28;20048;-80
2023/10/12 05:00:47;;;;;;;20.92;12.55;;;;;;;14.52;100.00;100424.09;5039226;28;20051;-80
2023/10/12 05:03:25;;;;;;;18.05;11.52;;;;;;;14.57;100.00;100411.66;5043972;28;20050;-76
2023/10/12 05:06:08;;;;;;;19.33;11.55;;;;;;;14.61;100.00;100420.31;5037842;28;20052;-79
2023/10/12 05:08:35;;;;;;;21.75;11.15;;;;;;;14.59;100.00;100428.28;5065426;28;20052;-80
2023/10/12 05:11:06;;;;;;;20.27;11.73;;;;;;;14.52;100.00;100427.59;5033133;28;20657;-80
2023/10/12 05:13:33;;;;;;;19.58;11.85;;;;;;;14.57;100.00;100438.00;5038719;28;20842;-77
2023/10/12 05:16:05;;;;;;;20.75;10.73;;;;;;;14.60;100.00;100440.56;5040001;28;20048;-77
2023/10/12 05:18:32;;;;;;;15.32;11.27;;;;;;;14.57;100.00;100451.16;5037874;28;20045;-78
2023/10/12 05:20:59;;;;;;;21.88;12.18;;;;;;;14.68;100.00;100451.75;5040263;28;20044;-79
2023/10/12 05:23:30;;;;;;;24.80;13.15;;;;;;;14.64;100.00;100451.88;5060735;28;20363;-83
2023/10/12 05:26:09;;;;;;;19.42;12.77;;;;;;;14.61;100.00;100455.41;5063310;28;20078;-80
2023/10/12 05:28:47;;;;;;;24.80;13.25;;;;;;;14.61;100.00;100449.31;5055855;28;20154;-80
2023/10/12 05:31:13;;;;;;;21.45;11.93;;;;;;;14.58;100.00;100441.50;5050491;28;20040;-82
2023/10/12 05:33:43;;;;;;;17.52;13.20;;;;;;;14.53;100.00;100447.75;5041869;28;20037;-78
2023/10/12 05:36:17;;;;;;;20.35;13.02;;;;;;;14.51;100.00;100449.56;5052649;28;20315;-79
2023/10/12 05:38:48;;;;;;;16.88;11.80;;;;;;;14.55;100.00;100474.91;5040549;28;20059;-77
2023/10/12 05:41:34;;;;;;;19.63;13.02;;;;;;;14.55;100.00;100480.19;5048969;28;22586;-80
2023/10/12 05:44:08;;;;;;;23.55;14.05;;;;;;;14.55;100.00;100487.22;5050190;28;20037;-78
2023/10/12 05:46:44;;;;;;;12.00;7.40;;;;;;;14.51;100.00;100504.00;5023219;28;20103;-79
2023/10/12 05:49:12;;;;;;;4.93;3.47;;;;;;;14.36;100.00;100505.31;5035281;28;20060;-77
2023/10/12 05:51:43;;;;;;;6.65;1.88;;;;;;;14.17;100.00;100500.53;5038200;28;20052;-78
2023/10/12 05:54:15;;;;;;;1.50;1.02;;;;;;;14.04;100.00;100488.56;5063492;28;20041;-79
2023/10/12 05:56:44;;;;;;;1.02;0.93;;;;;;;13.90;100.00;100494.22;5063665;28;20049;-80
2023/10/12 05:59:13;;;;;;;5.20;1.00;;;;;;;13.84;100.00;100502.25;5037533;28;20124;-78
2023/10/12 06:01:45;;;;;;;4.53;1.25;;;;;;;13.76;100.00;100499.81;5035563;28;20120;-78
2023/10/12 06:04:15;;;;;;;2.47;1.85;;;;;;;13.72;100.00;100506.91;5031155;28;20048;-78
2023/10/12 06:06:43;;;;;;;1.77;1.05;;;;;;;13.73;100.00;100532.31;5034794;28;20505;-80
2023/10/12 06:09:20;;;;;;;7.88;1.15;;;;;;;13.66;100.00;100546.53;5043013;28;20056;-79
2023/10/12 06:11:48;;;;;;;4.22;1.30;;;;;;;13.64;100.00;100536.94;5034732;28;20151;-77
2023/10/12 06:14:20;;;;;;;2.33;0.82;;;;;;;13.60;100.00;100548.41;5051494;28;20078;-78
2023/10/12 06:16:54;;;;;;;6.22;1.40;;;;;;;13.59;100.00;100544.94;5065745;28;20048;-77
2023/10/12 06:19:25;;;;;;;3.97;1.10;;;;;;;13.54;100.00;100547.66;5047888;28;20049;-76
2023/10/12 06:21:52;;;;;;;4.45;1.23;;;;;;;13.51;100.00;100560.03;5050596;28;20050;-79
2023/10/12 06:24:33;;;;;;;1.80;1.00;;;;;;;13.50;100.00;100561.78;5035959;28;20037;-79
2023/10/12 06:27:20;;;;;;;4.80;1.08;;;;;;;13.62;100.00;100559.78;5025258;28;20377;-78
2023/10/12 06:29:50;;;;;;;6.55;1.23;;;;;;;13.59;100.00;100567.75;5024543;28;20081;-76
2023/10/12 06:32:24;;;;;;;4.00;0.77;;;;;;;13.49;100.00;100575.84;5034115;28;20123;-81
2023/10/12 06:35:04;;;;;;;3.40;1.17;;;;;;;13.55;100.00;100580.09;5038302;28;20049;-81
2023/10/12 06:37:49;;;;;;;2.80;0.82;;;;;;;13.53;100.00;100576.63;5037892;28;20037;-79
2023/10/12 06:40:37;;;;;;;2.53;0.68;;;;;;;13.62;100.00;100586.09;5039405;28;20701;-78
2023/10/12 06:45:54;;;;;;;2.50;0.90;;;;;;;13.65;100.00;100579.00;5042548;28;20096;-77
2023/10/12 06:51:06;;;;;;;2.35;0.95;;;;;;;13.67;100.00;100592.09;5045411;28;20493;-77
2023/10/12 06:53:37;;;;;;;6.57;1.58;;;;;;;13.69;100.00;100588.53;5026326;28;20749;-78
2023/10/12 06:56:24;;;;;;;3.72;1.00;;;;;;;13.66;100.00;100599.16;5040279;28;20496;-79
2023/10/12 06:59:20;;;;;;;4.05;1.92;;;;;;;13.67;100.00;100614.00;5040922;28;20033;-79
2023/10/12 07:01:53;;;;;;;8.50;2.58;;;;;;;13.70;100.00;100619.22;5041547;28;20049;-78
2023/10/12 07:04:27;;;;;;;6.85;1.15;;;;;;;13.68;100.00;100626.25;5055146;28;20602;-76
2023/10/12 07:06:56;;;;;;;4.93;1.40;;;;;;;13.67;100.00;100618.41;5042114;28;20048;-76
2023/10/12 07:09:38;;;;;;;13.07;1.95;;;;;;;13.74;100.00;100633.16;5042177;28;20048;-76
2023/10/12 07:12:17;;;;;;;6.65;1.25;;;;;;;13.67;100.00;100629.78;5042731;28;20055;-77
2023/10/12 07:14:46;;;;;;;8.23;1.20;;;;;;;13.68;100.00;100625.41;5042827;28;20127;-81
2023/10/12 07:17:17;;;;;;;10.30;1.42;;;;;;;13.72;100.00;100630.56;5055335;28;20028;-78
2023/10/12 07:19:49;;;;;;;4.90;1.23;;;;;;;13.87;100.00;100639.88;5053207;28;20158;-81
2023/10/12 07:22:16;;;;;;;5.20;1.30;;;;;;;13.50;100.00;100640.66;5037210;28;20457;-79
2023/10/12 07:24:43;;;;;;;6.18;1.13;;;;;;;13.49;100.00;100643.34;5053567;28;20053;-79
2023/10/12 07:27:18;;;;;;;4.70;1.58;;;;;;;13.52;100.00;100638.03;5035565;28;20049;-79
2023/10/12 07:29:47;;;;;;;5.25;1.48;;;;;;;13.47;100.00;100638.13;5045509;28;20049;-78
2023/10/12 07:32:24;;;;;;;10.20;1.83;;;;;;;13.51;100.00;100646.81;5054715;28;20048;-81
2023/10/12 07:34:57;;;;;;;5.82;1.63;;;;;;;13.44;100.00;100653.97;5052939;28;20049;-78
2023/10/12 07:37:24;;;;;;;7.03;1.98;;;;;;;13.66;100.00;100656.13;5041638;28;20049;-79
2023/10/12 07:39:51;;;;;;;4.57;1.35;;;;;;;13.51;100.00;100666.06;5041931;28;20109;-81
2023/10/12 07:42:25;;;;;;;8.52;2.13;;;;;;;13.60;100.00;100661.50;5054739;28;20038;-79
2023/10/12 07:44:54;;;;;;;8.55;1.75;;;;;;;13.65;100.00;100668.44;5040787;28;20479;-82
2023/10/12 07:47:31;;;;;;;8.23;2.03;;;;;;;13.63;100.00;100666.72;5024672;28;20041;-76
2023/10/12 07:50:09;;;;;;;6.20;1.45;;;;;;;13.55;100.00;100669.53;5055632;28;20118;-76
2023/10/12 07:52:47;;;;;;;4.38;2.88;;;;;;;13.61;100.00;100684.28;5037740;28;20045;-80
2023/10/12 07:55:16;;;;;;;5.90;1.98;;;;;;;13.80;100.00;100679.50;5041194;28;20041;-79
2023/10/12 07:57:42;;;;;;;5.10;1.95;;;;;;;13.56;100.00;100676.50;5024085;28;20060;-79
2023/10/12 08:03:18;;;;;;;7.38;1.73;;;;;;;13.52;100.00;100686.22;5040524;28;20119;-80
2023/10/12 08:05:45;;;;;;;8.70;2.05;;;;;;;13.48;100.00;100696.81;5034318;28;20171;-79
2023/10/12 08:08:33;;;;;;;12.05;2.13;;;;;;;13.45;100.00;100708.28;5038886;28;20045;-77
2023/10/12 08:11:08;;;;;;;7.30;1.65;;;;;;;13.46;100.00;100710.00;5056302;28;20394;-82
2023/10/12 08:13:39;;;;;;;7.30;2.10;;;;;;;13.49;100.00;100719.59;5053833;28;20444;-78
2023/10/12 08:16:14;;;;;;;13.75;3.75;;;;;;;13.57;100.00;100713.31;5032749;28;20056;-80
2023/10/12 08:21:26;;;;;;;11.43;2.80;;;;;;;13.56;100.00;100715.97;5026688;28;20146;-78
2023/10/12 08:24:09;;;;;;;7.32;1.83;;;;;;;13.55;100.00;100715.09;5037843;28;20033;-78
2023/10/12 08:26:49;;;;;;;7.72;3.67;;;;;;;13.64;100.00;100715.81;5037594;28;20045;-78
2023/10/12 08:30:11;;;;;;;8.38;1.98;;;;;;;13.49;100.00;100712.59;5051860;28;20056;-81
2023/10/12 08:32:28;;;;;;;9.00;1.40;;;;;;;13.58;100.00;100716.78;5039866;28;20044;-83
2023/10/12 08:40:22;;;;;;;7.93;2.58;;;;;;;13.59;100.00;100718.53;5039012;28;20320;-79
2023/10/12 08:42:58;;;;;;;8.65;2.53;;;;;;;13.49;100.00;100724.88;5034782;28;20362;-76
2023/10/12 08:45:28;;;;;;;8.05;1.75;;;;;;;13.39;100.00;100729.44;5053438;28;20033;-77
2023/10/12 08:47:55;;;;;;;10.38;2.00;;;;;;;13.34;100.00;100729.50;5029455;28;20162;-76
2023/10/12 08:53:09;;;;;;;8.02;2.08;;;;;;;13.46;100.00;100740.72;5055522;28;20435;-81
2023/10/12 08:55:37;;;;;;;8.27;2.03;;;;;;;13.37;100.00;100737.34;5041898;28;20040;-81
2023/10/12 08:58:19;;;;;;;10.68;2.20;;;;;;;13.44;100.00;100739.88;5039209;28;20087;-76
2023/10/12 09:01:07;;;;;;;12.23;3.78;;;;;;;13.57;100.00;100744.88;5038125;28;20044;-76
2023/10/12 09:03:38;;;;;;;10.52;2.17;;;;;;;13.63;100.00;100749.13;5030448;28;20580;-80
2023/10/12 09:06:19;;;;;;;6.07;3.42;;;;;;;13.72;100.00;100754.19;5056795;28;20052;-80
2023/10/12 09:08:46;;;;;;;14.60;2.63;;;;;;;13.80;100.00;100753.19;5035881;28;20045;-78
2023/10/12 09:11:17;;;;;;;10.48;2.90;;;;;;;13.92;100.00;100752.06;5074427;28;20278;-80
2023/10/12 09:13:46;;;;;;;9.95;5.10;;;;;;;14.00;100.00;100761.53;5028482;28;20076;-75
2023/10/12 09:16:17;;;;;;;7.95;1.75;;;;;;;14.10;100.00;100751.66;5045855;28;20053;-79
2023/10/12 09:18:46;;;;;;;9.82;3.00;;;;;;;14.18;100.00;100752.38;5050719;28;20040;-82
2023/10/12 09:24:14;;;;;;;10.63;3.00;;;;;;;14.04;100.00;100755.28;5028748;28;20049;-76
2023/10/12 09:26:57;;;;;;;6.07;2.78;;;;;;;14.08;100.00;100753.47;5020697;28;20525;-77
2023/10/12 09:29:27;;;;;;;7.97;2.28;;;;;;;14.18;100.00;100755.00;5043164;28;20045;-77
2023/10/12 09:32:15;;;;;;;6.95;1.92;;;;;;;14.25;100.00;100761.00;5045128;28;20239;-79
2023/10/12 09:35:03;;;;;;;8.05;2.15;;;;;;;14.32;100.00;100759.94;5037450;28;20042;-76
2023/10/12 09:37:43;;;;;;;7.03;2.53;;;;;;;14.37;100.00;100765.97;5047436;28;20479;-80
2023/10/12 09:40:26;;;;;;;12.32;5.95;;;;;;;14.65;99.54;100756.59;5021057;28;20060;-79
2023/10/12 09:43:01;;;;;;;7.82;3.15;;;;;;;14.98;97.69;100760.16;5035368;28;20127;-78
2023/10/12 09:45:34;;;;;;;5.78;2.67;;;;;;;15.29;96.38;100750.56;5064223;28;20036;-80
2023/10/12 09:48:06;;;;;;;12.30;2.10;;;;;;;15.46;94.73;100755.38;5040125;28;20076;-78
2023/10/12 09:50:35;;;;;;;9.57;1.95;;;;;;;15.49;93.08;100742.97;5056636;28;20152;-77
2023/10/12 09:53:21;;;;;;;5.75;1.08;;;;;;;16.02;92.42;100745.00;5041156;28;20088;-79
2023/10/12 09:56:10;;;;;;;4.68;2.08;;;;;;;16.52;85.64;100743.47;5037385;28;20095;-79
2023/10/12 09:58:45;;;;;;;3.75;1.40;;;;;;;16.50;86.96;100745.28;5049086;28;20131;-79
2023/10/12 10:01:24;;;;;;;7.20;1.55;;;;;;;16.30;85.81;100744.13;5027620;28;20050;-77
2023/10/12 10:03:52;;;;;;;9.82;1.75;;;;;;;16.30;87.21;100753.84;5035629;28;20054;-78
2023/10/12 10:06:31;;;;;;;7.95;1.05;;;;;;;16.11;86.52;100751.75;5061011;28;20037;-79
2023/10/12 10:09:19;;;;;;;7.20;2.00;;;;;;;16.02;86.94;100746.75;5054940;28;20057;-82
2023/10/12 10:11:56;;;;;;;8.88;2.67;;;;;;;15.93;87.03;100758.47;5034989;28;20038;-78
2023/10/12 10:14:33;;;;;;;9.30;3.03;;;;;;;15.88;87.20;100757.75;5036962;28;20045;-82
2023/10/12 10:17:01;;;;;;;6.13;1.77;;;;;;;15.60;85.39;100768.19;5035035;28;20045;-78
2023/10/12 10:19:32;;;;;;;9.10;2.22;;;;;;;15.71;88.38;100760.84;5056816;28;20043;-76
2023/10/12 10:22:10;;;;;;;4.90;1.25;;;;;;;15.87;88.31;100762.16;5057513;28;20080;-82
2023/10/12 10:24:43;;;;;;;6.95;1.50;;;;;;;16.00;87.90;100762.66;5051613;28;20037;-78
2023/10/12 10:27:13;;;;;;;5.35;1.95;;;;;;;16.14;87.18;100764.00;5038385;28;20052;-79
2023/10/12 10:29:44;;;;;;;15.60;2.30;;;;;;;16.13;84.12;100762.31;5044078;28;20087;-78
2023/10/12 10:32:15;;;;;;;7.10;1.92;;;;;;;16.16;85.51;100764.84;5043446;28;20084;-78
2023/10/12 10:34:43;;;;;;;9.88;2.10;;;;;;;16.26;86.16;100768.94;5043579;28;20094;-77
2023/10/12 10:37:15;;;;;;;10.73;2.50;;;;;;;15.92;84.12;100758.50;5043278;28;20052;-80
2023/10/12 10:39:43;;;;;;;4.72;1.52;;;;;;;15.80;86.92;100765.84;5053228;28;20059;-77
2023/10/12 10:42:10;;;;;;;6.85;1.98;;;;;;;15.59;87.70;100761.19;5045907;28;20132;-78
2023/10/12 10:44:41;;;;;;;7.30;1.90;;;;;;;15.52;87.12;100765.75;5041868;28;20049;-81
2023/10/12 10:47:10;;;;;;;6.05;1.58;;;;;;;15.64;87.96;100764.56;5042201;28;20076;-78
2023/10/12 10:49:37;;;;;;;12.65;1.90;;;;;;;15.76;87.60;100763.34;5040856;28;20037;-79
2023/10/12 10:52:20;;;;;;;7.70;2.15;;;;;;;15.91;86.05;100759.44;5058599;28;20128;-79
2023/10/12 10:54:56;;;;;;;7.82;1.73;;;;;;;16.05;85.42;100751.97;5039842;28;20045;-77
2023/10/12 10:57:31;;;;;;;5.47;2.28;;;;;;;16.20;85.13;100756.78;5054576;28;20041;-85
2023/10/12 10:59:58;;;;;;;4.00;0.98;;;;;;;16.31;84.08;100760.84;5039252;28;20662;-79
2023/10/12 11:02:24;;;;;;;7.40;2.08;;;;;;;16.36;82.89;100751.00;5028623;28;20057;-80
2023/10/12 11:04:58;;;;;;;6.22;1.83;;;;;;;16.27;81.55;100759.22;5040299;28;20645;-82
2023/10/12 11:07:25;;;;;;;5.88;1.95;;;;;;;16.13;82.63;100751.75;5062929;28;20156;-79
2023/10/12 11:10:07;;;;;;;6.75;2.20;;;;;;;16.15;82.19;100756.06;5038483;28;20073;-78
2023/10/12 11:12:36;;;;;;;8.80;1.92;;;;;;;16.03;81.23;100757.31;5051315;28;20079;-81
2023/10/12 11:15:09;;;;;;;8.02;1.40;;;;;;;16.00;81.95;100760.00;5043567;28;20044;-80
2023/10/12 11:17:43;;;;;;;6.57;1.50;;;;;;;15.92;83.40;100756.75;5035526;28;20198;-80
2023/10/12 11:20:27;;;;;;;7.88;2.13;;;;;;;15.89;86.27;100751.53;5040368;28;20056;-77
2023/10/12 11:22:55;;;;;;;6.55;1.77;;;;;;;15.91;87.65;100755.00;5044167;28;20451;-78
2023/10/12 11:25:21;;;;;;;5.35;1.73;;;;;;;15.77;86.87;100758.00;5058439;28;20046;-78
2023/10/12 11:27:51;;;;;;;8.05;2.40;;;;;;;15.70;88.60;100764.38;5039499;28;20510;-82
2023/10/12 11:30:35;;;;;;;7.43;2.38;;;;;;;15.64;89.73;100759.28;5052792;28;20160;-80
2023/10/12 11:33:09;;;;;;;8.80;2.38;;;;;;;15.58;90.38;100755.06;5040647;28;20057;-79
2023/10/12 11:35:41;;;;;;;8.45;2.22;;;;;;;15.52;90.90;100761.34;5047558;28;20060;-83
2023/10/12 11:38:21;;;;;;;7.07;2.50;;;;;;;15.42;92.24;100767.78;5040490;28;20053;-84
2023/10/12 11:40:52;;;;;;;9.13;1.85;;;;;;;15.31;93.77;100768.06;5040225;28;20052;-80
2023/10/12 11:43:28;;;;;;;7.05;2.17;;;;;;;15.34;94.16;100761.84;5045174;28;20052;-78
2023/10/12 11:46:03;;;;;;;8.27;3.00;;;;;;;15.26;94.62;100761.22;5045728;28;20037;-79
2023/10/12 11:48:31;;;;;;;5.15;2.05;;;;;;;15.16;95.62;100760.56;5061326;28;20073;-80
2023/10/12 11:50:59;;;;;;;8.25;2.00;;;;;;;15.02;97.64;100764.44;5073471;28;20043;-80
2023/10/12 11:53:28;;;;;;;6.60;1.92;;;;;;;15.12;97.01;100766.84;5044400;28;20120;-81
2023/10/12 11:56:03;;;;;;;11.40;1.92;;;;;;;15.22;98.06;100760.41;5034387;28;20335;-78
2023/10/12 11:58:32;;;;;;;8.73;2.05;;;;;;;15.26;97.91;100756.78;5021663;28;20139;-76
2023/10/12 12:01:01;;;;;;;8.13;2.15;;;;;;;15.13;97.77;100763.31;5053776;28;20056;-81
2023/10/12 12:03:27;;;;;;;7.15;1.90;;;;;;;14.89;98.30;100758.59;5026728;28;20045;-80
2023/10/12 12:05:54;;;;;;;5.50;1.70;;;;;;;14.97;99.54;100768.09;5043704;28;20551;-79
2023/10/12 12:08:24;;;;;;;6.78;1.65;;;;;;;15.06;99.01;100759.97;5041105;28;20040;-78
2023/10/12 12:10:56;;;;;;;6.28;1.95;;;;;;;15.10;99.45;100758.13;5041150;28;20040;-77
2023/10/12 12:13:23;;;;;;;7.35;2.17;;;;;;;15.00;100.00;100763.59;5034356;28;20075;-76
2023/10/12 12:15:55;;;;;;;7.13;2.05;;;;;;;14.93;100.00;100756.78;5040438;28;20041;-78
2023/10/12 12:18:22;;;;;;;7.03;1.60;;;;;;;14.84;100.00;100768.41;5035255;28;20061;-78
2023/10/12 12:20:51;;;;;;;4.78;2.22;;;;;;;14.68;100.00;100754.75;5035682;28;20069;-82
2023/10/12 12:23:26;;;;;;;4.47;1.95;;;;;;;14.82;100.00;100756.16;5056535;28;20037;-77
2023/10/12 12:25:59;;;;;;;9.70;2.40;;;;;;;14.50;100.00;100758.66;5035261;28;20052;-79